sensor_id;sensor_type;location;lat;lon;timestamp;temperature;humidity
11965;DHT22;6042;41.326;19.826;2023-03-31T00:01:27;10.50;99.90
11965;DHT22;6042;41.326;19.826;2023-03-31T00:03:55;10.50;99.90
11965;DHT22;6042;41.326;19.826;2023-03-31T00:06:33;10.40;99.90
11965;DHT22;6042;41.326;19.826;2023-03-31T00:09:05;10.30;99.90
11965;DHT22;6042;41.326;19.826;2023-03-31T00:11:37;10.20;99.90
11965;DHT22;6042;41.326;19.826;2023-03-31T00:14:08;10.20;99.90
11965;DHT22;6042;41.326;19.826;2023-03-31T00:16:37;10.20;99.90
11965;DHT22;6042;41.326;19.826;2023-03-31T00:19:06;10.20;99.90
11965;DHT22;6042;41.326;19.826;2023-03-31T00:21:45;10.00;99.90
11965;DHT22;6042;41.326;19.826;2023-03-31T00:24:14;9.90;99.90
11965;DHT22;6042;41.326;19.826;2023-03-31T00:26:43;9.80;99.90
11965;DHT22;6042;41.326;19.826;2023-03-31T00:29:13;9.70;99.90
11965;DHT22;6042;41.326;19.826;2023-03-31T00:31:42;9.70;99.90
11965;DHT22;6042;41.326;19.826;2023-03-31T00:34:11;9.70;99.90
11965;DHT22;6042;41.326;19.826;2023-03-31T00:36:39;9.60;99.90
11965;DHT22;6042;41.326;19.826;2023-03-31T00:39:14;9.70;99.90
11965;DHT22;6042;41.326;19.826;2023-03-31T00:41:43;9.60;99.90
11965;DHT22;6042;41.326;19.826;2023-03-31T00:44:15;9.60;99.90
11965;DHT22;6042;41.326;19.826;2023-03-31T00:46:50;9.50;99.90
11965;DHT22;6042;41.326;19.826;2023-03-31T00:49:24;9.50;99.90
11965;DHT22;6042;41.326;19.826;2023-03-31T00:51:57;9.50;99.90
11965;DHT22;6042;41.326;19.826;2023-03-31T00:54:27;9.50;99.90
11965;DHT22;6042;41.326;19.826;2023-03-31T00:56:58;9.50;99.90
11965;DHT22;6042;41.326;19.826;2023-03-31T00:59:34;9.60;99.90
11965;DHT22;6042;41.326;19.826;2023-03-31T01:02:04;9.60;99.90
11965;DHT22;6042;41.326;19.826;2023-03-31T01:04:35;9.60;99.90
11965;DHT22;6042;41.326;19.826;2023-03-31T01:07:09;9.60;99.90
11965;DHT22;6042;41.326;19.826;2023-03-31T01:09:43;9.60;99.90
11965;DHT22;6042;41.326;19.826;2023-03-31T01:12:15;9.50;99.90
11965;DHT22;6042;41.326;19.826;2023-03-31T01:14:49;9.70;99.90
11965;DHT22;6042;41.326;19.826;2023-03-31T01:17:19;9.80;99.90
11965;DHT22;6042;41.326;19.826;2023-03-31T01:20:01;9.70;99.90
11965;DHT22;6042;41.326;19.826;2023-03-31T01:22:49;9.70;99.90
11965;DHT22;6042;41.326;19.826;2023-03-31T01:25:54;9.80;99.90
11965;DHT22;6042;41.326;19.826;2023-03-31T01:28:35;9.80;99.90
11965;DHT22;6042;41.326;19.826;2023-03-31T01:38:00;9.70;99.90
11965;DHT22;6042;41.326;19.826;2023-03-31T01:40:46;9.70;99.90
11965;DHT22;6042;41.326;19.826;2023-03-31T01:43:21;9.60;99.90
11965;DHT22;6042;41.326;19.826;2023-03-31T01:45:56;9.50;99.90
11965;DHT22;6042;41.326;19.826;2023-03-31T01:48:34;9.30;99.90
11965;DHT22;6042;41.326;19.826;2023-03-31T01:51:13;9.20;99.90
11965;DHT22;6042;41.326;19.826;2023-03-31T01:53:49;9.20;99.90
11965;DHT22;6042;41.326;19.826;2023-03-31T01:56:24;9.30;99.90
11965;DHT22;6042;41.326;19.826;2023-03-31T01:58:57;9.30;99.90
11965;DHT22;6042;41.326;19.826;2023-03-31T02:01:30;9.10;99.90
11965;DHT22;6042;41.326;19.826;2023-03-31T02:04:08;9.10;99.90
11965;DHT22;6042;41.326;19.826;2023-03-31T02:06:41;8.90;99.90
11965;DHT22;6042;41.326;19.826;2023-03-31T02:09:14;8.90;99.90
11965;DHT22;6042;41.326;19.826;2023-03-31T02:11:46;8.80;99.90
11965;DHT22;6042;41.326;19.826;2023-03-31T02:14:18;8.90;99.90
11965;DHT22;6042;41.326;19.826;2023-03-31T02:16:54;8.90;99.90
11965;DHT22;6042;41.326;19.826;2023-03-31T02:19:26;8.90;99.90
11965;DHT22;6042;41.326;19.826;2023-03-31T02:21:57;8.90;99.90
11965;DHT22;6042;41.326;19.826;2023-03-31T02:24:27;8.80;99.90
11965;DHT22;6042;41.326;19.826;2023-03-31T02:27:03;8.80;99.90
11965;DHT22;6042;41.326;19.826;2023-03-31T02:29:33;8.90;99.90
11965;DHT22;6042;41.326;19.826;2023-03-31T02:32:08;8.90;99.90
11965;DHT22;6042;41.326;19.826;2023-03-31T02:34:38;8.90;99.90
11965;DHT22;6042;41.326;19.826;2023-03-31T02:37:06;8.90;99.90
11965;DHT22;6042;41.326;19.826;2023-03-31T02:39:38;8.90;99.90
11965;DHT22;6042;41.326;19.826;2023-03-31T02:42:11;8.90;99.90
11965;DHT22;6042;41.326;19.826;2023-03-31T02:44:40;8.90;99.90
11965;DHT22;6042;41.326;19.826;2023-03-31T02:47:12;9.00;99.90
11965;DHT22;6042;41.326;19.826;2023-03-31T02:49:46;9.10;99.90
11965;DHT22;6042;41.326;19.826;2023-03-31T02:52:36;9.10;99.90
11965;DHT22;6042;41.326;19.826;2023-03-31T02:55:18;9.10;99.90
11965;DHT22;6042;41.326;19.826;2023-03-31T03:03:47;9.30;99.90
11965;DHT22;6042;41.326;19.826;2023-03-31T03:06:32;9.30;99.90
11965;DHT22;6042;41.326;19.826;2023-03-31T03:09:33;9.30;99.90
11965;DHT22;6042;41.326;19.826;2023-03-31T03:12:10;9.20;99.90
11965;DHT22;6042;41.326;19.826;2023-03-31T03:14:46;9.10;99.90
11965;DHT22;6042;41.326;19.826;2023-03-31T03:17:22;9.20;99.90
11965;DHT22;6042;41.326;19.826;2023-03-31T03:19:54;9.40;99.90
11965;DHT22;6042;41.326;19.826;2023-03-31T03:22:24;9.40;99.90
11965;DHT22;6042;41.326;19.826;2023-03-31T03:24:52;9.30;99.90
11965;DHT22;6042;41.326;19.826;2023-03-31T03:27:21;9.20;99.90
11965;DHT22;6042;41.326;19.826;2023-03-31T03:29:51;9.10;99.90
11965;DHT22;6042;41.326;19.826;2023-03-31T03:32:20;9.10;99.90
11965;DHT22;6042;41.326;19.826;2023-03-31T03:34:49;9.10;99.90
11965;DHT22;6042;41.326;19.826;2023-03-31T03:37:17;9.20;99.90
11965;DHT22;6042;41.326;19.826;2023-03-31T03:39:46;9.20;99.90
11965;DHT22;6042;41.326;19.826;2023-03-31T03:42:14;9.30;99.90
11965;DHT22;6042;41.326;19.826;2023-03-31T03:44:43;9.30;99.90
11965;DHT22;6042;41.326;19.826;2023-03-31T03:47:13;9.30;99.90
11965;DHT22;6042;41.326;19.826;2023-03-31T03:49:44;9.30;99.90
11965;DHT22;6042;41.326;19.826;2023-03-31T03:52:14;9.30;99.90
11965;DHT22;6042;41.326;19.826;2023-03-31T03:54:43;9.30;99.90
11965;DHT22;6042;41.326;19.826;2023-03-31T03:57:12;9.30;99.90
11965;DHT22;6042;41.326;19.826;2023-03-31T03:59:40;9.20;99.90
11965;DHT22;6042;41.326;19.826;2023-03-31T04:02:09;9.20;99.90
11965;DHT22;6042;41.326;19.826;2023-03-31T04:04:39;9.30;99.90
11965;DHT22;6042;41.326;19.826;2023-03-31T04:07:07;9.20;99.90
11965;DHT22;6042;41.326;19.826;2023-03-31T04:09:36;9.20;99.90
11965;DHT22;6042;41.326;19.826;2023-03-31T04:12:05;9.20;99.90
11965;DHT22;6042;41.326;19.826;2023-03-31T04:14:33;9.30;99.90
11965;DHT22;6042;41.326;19.826;2023-03-31T04:17:02;9.30;99.90
11965;DHT22;6042;41.326;19.826;2023-03-31T04:19:30;9.30;99.90
11965;DHT22;6042;41.326;19.826;2023-03-31T04:22:00;9.30;99.90
11965;DHT22;6042;41.326;19.826;2023-03-31T04:24:31;9.30;99.90
11965;DHT22;6042;41.326;19.826;2023-03-31T04:27:00;9.30;99.90
11965;DHT22;6042;41.326;19.826;2023-03-31T04:29:29;9.40;99.90
11965;DHT22;6042;41.326;19.826;2023-03-31T04:32:00;9.40;99.90
11965;DHT22;6042;41.326;19.826;2023-03-31T04:34:29;9.50;99.90
11965;DHT22;6042;41.326;19.826;2023-03-31T04:37:04;9.50;99.90
11965;DHT22;6042;41.326;19.826;2023-03-31T04:39:36;9.40;99.90
11965;DHT22;6042;41.326;19.826;2023-03-31T04:42:05;9.40;99.90
11965;DHT22;6042;41.326;19.826;2023-03-31T04:44:34;9.40;99.90
11965;DHT22;6042;41.326;19.826;2023-03-31T04:47:03;9.30;99.90
11965;DHT22;6042;41.326;19.826;2023-03-31T04:49:33;9.20;99.90
11965;DHT22;6042;41.326;19.826;2023-03-31T04:52:04;9.30;99.90
11965;DHT22;6042;41.326;19.826;2023-03-31T04:54:33;9.20;99.90
11965;DHT22;6042;41.326;19.826;2023-03-31T04:57:01;9.20;99.90
11965;DHT22;6042;41.326;19.826;2023-03-31T04:59:30;9.10;99.90
11965;DHT22;6042;41.326;19.826;2023-03-31T05:01:58;9.10;99.90
11965;DHT22;6042;41.326;19.826;2023-03-31T05:04:27;9.00;99.90
11965;DHT22;6042;41.326;19.826;2023-03-31T05:06:56;9.00;99.90
11965;DHT22;6042;41.326;19.826;2023-03-31T05:09:26;9.10;99.90
11965;DHT22;6042;41.326;19.826;2023-03-31T05:11:55;9.10;99.90
11965;DHT22;6042;41.326;19.826;2023-03-31T05:14:24;9.20;99.90
11965;DHT22;6042;41.326;19.826;2023-03-31T05:16:54;9.20;99.90
11965;DHT22;6042;41.326;19.826;2023-03-31T05:19:24;9.40;99.90
11965;DHT22;6042;41.326;19.826;2023-03-31T05:21:52;9.50;99.90
11965;DHT22;6042;41.326;19.826;2023-03-31T05:24:21;9.70;99.90
11965;DHT22;6042;41.326;19.826;2023-03-31T05:26:51;9.80;99.90
11965;DHT22;6042;41.326;19.826;2023-03-31T05:29:20;9.80;99.90
11965;DHT22;6042;41.326;19.826;2023-03-31T05:31:50;9.90;99.90
11965;DHT22;6042;41.326;19.826;2023-03-31T05:34:20;9.80;99.90
11965;DHT22;6042;41.326;19.826;2023-03-31T05:36:48;10.00;99.90
11965;DHT22;6042;41.326;19.826;2023-03-31T05:39:20;10.20;99.90
11965;DHT22;6042;41.326;19.826;2023-03-31T05:41:49;10.50;99.90
11965;DHT22;6042;41.326;19.826;2023-03-31T05:44:19;10.50;99.90
11965;DHT22;6042;41.326;19.826;2023-03-31T05:46:48;10.60;99.90
11965;DHT22;6042;41.326;19.826;2023-03-31T05:49:17;10.40;99.90
11965;DHT22;6042;41.326;19.826;2023-03-31T05:51:46;10.40;99.90
11965;DHT22;6042;41.326;19.826;2023-03-31T05:54:17;10.40;99.90
11965;DHT22;6042;41.326;19.826;2023-03-31T05:56:45;10.60;99.90
11965;DHT22;6042;41.326;19.826;2023-03-31T05:59:14;10.70;99.90
11965;DHT22;6042;41.326;19.826;2023-03-31T06:01:45;10.60;99.90
11965;DHT22;6042;41.326;19.826;2023-03-31T06:04:13;10.60;99.90
11965;DHT22;6042;41.326;19.826;2023-03-31T06:06:42;10.70;99.90
11965;DHT22;6042;41.326;19.826;2023-03-31T06:09:12;10.70;99.90
11965;DHT22;6042;41.326;19.826;2023-03-31T06:11:40;10.80;99.90
11965;DHT22;6042;41.326;19.826;2023-03-31T06:14:09;11.00;99.90
11965;DHT22;6042;41.326;19.826;2023-03-31T06:16:38;11.10;99.90
11965;DHT22;6042;41.326;19.826;2023-03-31T06:19:08;11.40;99.90
11965;DHT22;6042;41.326;19.826;2023-03-31T06:21:36;11.70;99.90
11965;DHT22;6042;41.326;19.826;2023-03-31T06:24:05;11.80;99.90
11965;DHT22;6042;41.326;19.826;2023-03-31T06:26:38;11.80;99.90
11965;DHT22;6042;41.326;19.826;2023-03-31T06:29:07;11.90;99.90
11965;DHT22;6042;41.326;19.826;2023-03-31T06:31:35;12.00;99.90
11965;DHT22;6042;41.326;19.826;2023-03-31T06:34:04;12.10;99.90
11965;DHT22;6042;41.326;19.826;2023-03-31T06:36:34;12.20;99.90
11965;DHT22;6042;41.326;19.826;2023-03-31T06:39:03;12.20;99.90
11965;DHT22;6042;41.326;19.826;2023-03-31T06:41:32;12.40;99.90
11965;DHT22;6042;41.326;19.826;2023-03-31T06:44:00;12.50;99.90
11965;DHT22;6042;41.326;19.826;2023-03-31T06:46:29;12.70;99.90
11965;DHT22;6042;41.326;19.826;2023-03-31T06:48:58;12.70;99.90
11965;DHT22;6042;41.326;19.826;2023-03-31T06:51:26;12.90;99.90
11965;DHT22;6042;41.326;19.826;2023-03-31T06:53:59;13.10;99.90
11965;DHT22;6042;41.326;19.826;2023-03-31T06:56:28;13.40;99.90
11965;DHT22;6042;41.326;19.826;2023-03-31T06:58:57;13.50;99.90
11965;DHT22;6042;41.326;19.826;2023-03-31T07:01:26;13.80;99.90
11965;DHT22;6042;41.326;19.826;2023-03-31T07:03:54;14.00;99.90
11965;DHT22;6042;41.326;19.826;2023-03-31T07:06:23;14.10;99.90
11965;DHT22;6042;41.326;19.826;2023-03-31T07:08:54;14.20;99.90
11965;DHT22;6042;41.326;19.826;2023-03-31T07:11:26;14.20;99.90
11965;DHT22;6042;41.326;19.826;2023-03-31T07:13:54;14.10;99.90
11965;DHT22;6042;41.326;19.826;2023-03-31T07:16:23;14.10;99.90
11965;DHT22;6042;41.326;19.826;2023-03-31T07:18:52;14.20;99.90
11965;DHT22;6042;41.326;19.826;2023-03-31T07:21:25;14.20;99.90
11965;DHT22;6042;41.326;19.826;2023-03-31T07:23:57;14.30;99.90
11965;DHT22;6042;41.326;19.826;2023-03-31T07:26:27;14.20;99.90
11965;DHT22;6042;41.326;19.826;2023-03-31T07:28:55;14.30;99.90
11965;DHT22;6042;41.326;19.826;2023-03-31T07:31:24;14.40;99.90
11965;DHT22;6042;41.326;19.826;2023-03-31T07:33:53;14.40;99.90
11965;DHT22;6042;41.326;19.826;2023-03-31T07:36:22;14.50;99.90
11965;DHT22;6042;41.326;19.826;2023-03-31T07:38:51;14.50;99.90
11965;DHT22;6042;41.326;19.826;2023-03-31T07:41:21;14.50;99.90
11965;DHT22;6042;41.326;19.826;2023-03-31T07:43:51;14.70;99.90
11965;DHT22;6042;41.326;19.826;2023-03-31T07:46:22;14.80;99.90
11965;DHT22;6042;41.326;19.826;2023-03-31T07:48:52;14.80;99.90
11965;DHT22;6042;41.326;19.826;2023-03-31T07:51:24;14.90;99.90
11965;DHT22;6042;41.326;19.826;2023-03-31T07:53:53;15.00;99.70
11965;DHT22;6042;41.326;19.826;2023-03-31T07:56:23;15.10;99.50
11965;DHT22;6042;41.326;19.826;2023-03-31T07:58:53;15.40;99.40
11965;DHT22;6042;41.326;19.826;2023-03-31T08:01:24;15.60;99.00
11965;DHT22;6042;41.326;19.826;2023-03-31T08:03:55;15.70;98.90
11965;DHT22;6042;41.326;19.826;2023-03-31T08:06:25;16.00;98.00
11965;DHT22;6042;41.326;19.826;2023-03-31T08:08:55;15.90;98.70
11965;DHT22;6042;41.326;19.826;2023-03-31T08:11:24;16.00;98.00
11965;DHT22;6042;41.326;19.826;2023-03-31T08:13:55;16.10;97.90
11965;DHT22;6042;41.326;19.826;2023-03-31T08:16:23;16.10;97.80
11965;DHT22;6042;41.326;19.826;2023-03-31T08:18:52;16.30;97.40
11965;DHT22;6042;41.326;19.826;2023-03-31T08:21:21;16.30;97.50
11965;DHT22;6042;41.326;19.826;2023-03-31T08:23:52;16.40;97.10
11965;DHT22;6042;41.326;19.826;2023-03-31T08:26:22;16.20;97.20
11965;DHT22;6042;41.326;19.826;2023-03-31T08:28:51;16.20;96.70
11965;DHT22;6042;41.326;19.826;2023-03-31T08:31:22;16.40;96.40
11965;DHT22;6042;41.326;19.826;2023-03-31T08:33:53;16.40;95.80
11965;DHT22;6042;41.326;19.826;2023-03-31T08:36:24;16.40;95.60
11965;DHT22;6042;41.326;19.826;2023-03-31T08:38:53;16.40;95.30
11965;DHT22;6042;41.326;19.826;2023-03-31T08:41:46;16.40;95.20
11965;DHT22;6042;41.326;19.826;2023-03-31T08:44:23;16.40;93.40
11965;DHT22;6042;41.326;19.826;2023-03-31T08:46:55;16.30;91.60
11965;DHT22;6042;41.326;19.826;2023-03-31T08:49:25;16.20;91.50
11965;DHT22;6042;41.326;19.826;2023-03-31T08:51:58;16.40;91.60
11965;DHT22;6042;41.326;19.826;2023-03-31T08:54:32;16.50;91.80
11965;DHT22;6042;41.326;19.826;2023-03-31T08:57:05;16.70;91.20
11965;DHT22;6042;41.326;19.826;2023-03-31T08:59:39;16.80;90.80
11965;DHT22;6042;41.326;19.826;2023-03-31T09:02:18;16.90;90.70
11965;DHT22;6042;41.326;19.826;2023-03-31T09:05:13;16.90;90.90
11965;DHT22;6042;41.326;19.826;2023-03-31T09:07:51;17.20;90.40
11965;DHT22;6042;41.326;19.826;2023-03-31T09:10:30;17.30;90.20
11965;DHT22;6042;41.326;19.826;2023-03-31T09:13:05;17.50;90.20
11965;DHT22;6042;41.326;19.826;2023-03-31T09:15:41;17.60;88.40
11965;DHT22;6042;41.326;19.826;2023-03-31T09:18:17;17.50;90.20
11965;DHT22;6042;41.326;19.826;2023-03-31T09:21:01;17.60;89.50
11965;DHT22;6042;41.326;19.826;2023-03-31T09:23:37;17.60;88.30
11965;DHT22;6042;41.326;19.826;2023-03-31T09:26:11;17.50;89.00
11965;DHT22;6042;41.326;19.826;2023-03-31T09:28:44;17.10;89.60
11965;DHT22;6042;41.326;19.826;2023-03-31T09:31:16;16.90;89.90
11965;DHT22;6042;41.326;19.826;2023-03-31T09:33:47;16.80;90.10
11965;DHT22;6042;41.326;19.826;2023-03-31T09:36:20;17.00;90.30
11965;DHT22;6042;41.326;19.826;2023-03-31T09:38:50;17.20;90.20
11965;DHT22;6042;41.326;19.826;2023-03-31T09:41:19;17.40;89.50
11965;DHT22;6042;41.326;19.826;2023-03-31T09:43:49;17.50;89.50
11965;DHT22;6042;41.326;19.826;2023-03-31T09:46:23;17.60;89.20
11965;DHT22;6042;41.326;19.826;2023-03-31T09:48:59;17.60;89.10
11965;DHT22;6042;41.326;19.826;2023-03-31T09:51:32;17.60;89.20
11965;DHT22;6042;41.326;19.826;2023-03-31T09:54:09;17.70;88.90
11965;DHT22;6042;41.326;19.826;2023-03-31T09:56:46;17.80;89.00
11965;DHT22;6042;41.326;19.826;2023-03-31T09:59:18;17.80;89.40
11965;DHT22;6042;41.326;19.826;2023-03-31T10:01:50;17.80;89.80
11965;DHT22;6042;41.326;19.826;2023-03-31T10:04:24;17.90;89.20
11965;DHT22;6042;41.326;19.826;2023-03-31T10:06:55;18.00;88.10
11965;DHT22;6042;41.326;19.826;2023-03-31T10:09:26;18.10;87.80
11965;DHT22;6042;41.326;19.826;2023-03-31T10:11:57;18.00;88.30
11965;DHT22;6042;41.326;19.826;2023-03-31T10:14:32;18.00;88.50
11965;DHT22;6042;41.326;19.826;2023-03-31T10:17:04;18.10;89.90
11965;DHT22;6042;41.326;19.826;2023-03-31T10:19:36;18.20;88.40
11965;DHT22;6042;41.326;19.826;2023-03-31T10:22:08;18.10;88.40
11965;DHT22;6042;41.326;19.826;2023-03-31T10:24:43;18.00;88.40
11965;DHT22;6042;41.326;19.826;2023-03-31T10:27:19;18.10;89.30
11965;DHT22;6042;41.326;19.826;2023-03-31T10:29:51;18.10;87.80
11965;DHT22;6042;41.326;19.826;2023-03-31T10:32:23;18.30;87.40
11965;DHT22;6042;41.326;19.826;2023-03-31T10:34:57;18.40;87.50
11965;DHT22;6042;41.326;19.826;2023-03-31T10:37:28;18.40;88.20
11965;DHT22;6042;41.326;19.826;2023-03-31T10:39:58;18.50;87.70
11965;DHT22;6042;41.326;19.826;2023-03-31T10:42:27;18.60;87.30
11965;DHT22;6042;41.326;19.826;2023-03-31T10:45:11;18.70;86.50
11965;DHT22;6042;41.326;19.826;2023-03-31T10:47:58;18.90;86.40
11965;DHT22;6042;41.326;19.826;2023-03-31T10:50:32;19.00;85.50
11965;DHT22;6042;41.326;19.826;2023-03-31T10:53:02;19.00;85.20
11965;DHT22;6042;41.326;19.826;2023-03-31T10:55:35;19.00;85.00
11965;DHT22;6042;41.326;19.826;2023-03-31T10:58:12;19.00;84.80
11965;DHT22;6042;41.326;19.826;2023-03-31T11:00:52;19.30;84.80
11965;DHT22;6042;41.326;19.826;2023-03-31T11:06:46;19.40;83.40
11965;DHT22;6042;41.326;19.826;2023-03-31T11:09:35;19.40;82.80
11965;DHT22;6042;41.326;19.826;2023-03-31T11:12:15;19.30;83.20
11965;DHT22;6042;41.326;19.826;2023-03-31T11:14:53;19.30;83.50
11965;DHT22;6042;41.326;19.826;2023-03-31T11:17:30;19.30;83.00
11965;DHT22;6042;41.326;19.826;2023-03-31T11:20:08;19.20;82.30
11965;DHT22;6042;41.326;19.826;2023-03-31T11:22:52;19.30;82.40
11965;DHT22;6042;41.326;19.826;2023-03-31T11:25:32;19.40;81.60
11965;DHT22;6042;41.326;19.826;2023-03-31T11:31:30;19.70;80.20
11965;DHT22;6042;41.326;19.826;2023-03-31T11:34:12;19.70;79.90
11965;DHT22;6042;41.326;19.826;2023-03-31T11:37:02;19.60;79.80
11965;DHT22;6042;41.326;19.826;2023-03-31T11:39:47;19.70;80.00
11965;DHT22;6042;41.326;19.826;2023-03-31T11:42:20;20.10;79.00
11965;DHT22;6042;41.326;19.826;2023-03-31T11:44:53;20.20;78.40
11965;DHT22;6042;41.326;19.826;2023-03-31T11:47:26;20.30;78.50
11965;DHT22;6042;41.326;19.826;2023-03-31T11:49:59;20.10;77.90
11965;DHT22;6042;41.326;19.826;2023-03-31T11:52:34;20.20;78.40
11965;DHT22;6042;41.326;19.826;2023-03-31T11:55:13;20.40;77.10
11965;DHT22;6042;41.326;19.826;2023-03-31T11:57:45;20.40;77.00
11965;DHT22;6042;41.326;19.826;2023-03-31T12:00:17;20.30;76.70
11965;DHT22;6042;41.326;19.826;2023-03-31T12:02:50;20.30;76.90
11965;DHT22;6042;41.326;19.826;2023-03-31T12:05:21;20.10;76.80
11965;DHT22;6042;41.326;19.826;2023-03-31T12:07:57;20.10;77.20
11965;DHT22;6042;41.326;19.826;2023-03-31T12:10:32;20.40;76.70
11965;DHT22;6042;41.326;19.826;2023-03-31T12:13:13;20.40;76.10
11965;DHT22;6042;41.326;19.826;2023-03-31T12:15:48;20.10;76.30
11965;DHT22;6042;41.326;19.826;2023-03-31T12:18:23;20.10;76.90
11965;DHT22;6042;41.326;19.826;2023-03-31T12:20:55;20.50;76.40
11965;DHT22;6042;41.326;19.826;2023-03-31T12:23:27;20.80;75.50
11965;DHT22;6042;41.326;19.826;2023-03-31T12:26:01;20.80;75.80
11965;DHT22;6042;41.326;19.826;2023-03-31T12:28:35;20.80;75.20
11965;DHT22;6042;41.326;19.826;2023-03-31T12:31:10;20.90;75.80
11965;DHT22;6042;41.326;19.826;2023-03-31T12:33:42;21.00;74.80
11965;DHT22;6042;41.326;19.826;2023-03-31T12:36:19;21.00;74.20
11965;DHT22;6042;41.326;19.826;2023-03-31T12:39:00;21.20;73.90
11965;DHT22;6042;41.326;19.826;2023-03-31T12:41:44;21.40;72.30
11965;DHT22;6042;41.326;19.826;2023-03-31T12:44:27;21.30;72.60
11965;DHT22;6042;41.326;19.826;2023-03-31T12:50:11;21.20;71.30
11965;DHT22;6042;41.326;19.826;2023-03-31T12:52:46;20.90;72.00
11965;DHT22;6042;41.326;19.826;2023-03-31T12:55:31;21.10;71.80
11965;DHT22;6042;41.326;19.826;2023-03-31T13:01:12;21.30;68.40
11965;DHT22;6042;41.326;19.826;2023-03-31T13:03:48;21.30;68.30
11965;DHT22;6042;41.326;19.826;2023-03-31T13:09:47;21.30;77.20
11965;DHT22;6042;41.326;19.826;2023-03-31T13:12:21;21.20;78.10
11965;DHT22;6042;41.326;19.826;2023-03-31T13:14:54;21.40;78.20
11965;DHT22;6042;41.326;19.826;2023-03-31T13:17:30;21.60;77.60
11965;DHT22;6042;41.326;19.826;2023-03-31T13:20:23;21.40;76.90
11965;DHT22;6042;41.326;19.826;2023-03-31T13:23:00;21.40;78.10
11965;DHT22;6042;41.326;19.826;2023-03-31T13:25:48;21.70;77.90
11965;DHT22;6042;41.326;19.826;2023-03-31T13:28:32;21.60;71.20
11965;DHT22;6042;41.326;19.826;2023-03-31T13:31:03;21.90;76.00
11965;DHT22;6042;41.326;19.826;2023-03-31T13:33:37;22.00;76.10
11965;DHT22;6042;41.326;19.826;2023-03-31T13:36:42;21.70;77.20
11965;DHT22;6042;41.326;19.826;2023-03-31T13:39:41;22.10;75.00
11965;DHT22;6042;41.326;19.826;2023-03-31T13:42:29;22.60;73.80
11965;DHT22;6042;41.326;19.826;2023-03-31T13:45:13;23.80;71.80
11965;DHT22;6042;41.326;19.826;2023-03-31T13:48:17;24.80;69.30
11965;DHT22;6042;41.326;19.826;2023-03-31T13:51:27;25.30;66.20
11965;DHT22;6042;41.326;19.826;2023-03-31T13:54:48;24.90;65.30
11965;DHT22;6042;41.326;19.826;2023-03-31T13:57:46;24.30;66.50
11965;DHT22;6042;41.326;19.826;2023-03-31T14:00:24;24.70;65.40
11965;DHT22;6042;41.326;19.826;2023-03-31T14:03:25;24.60;65.70
11965;DHT22;6042;41.326;19.826;2023-03-31T14:06:00;24.70;64.90
11965;DHT22;6042;41.326;19.826;2023-03-31T14:08:48;25.20;64.00
11965;DHT22;6042;41.326;19.826;2023-03-31T14:11:22;26.10;62.00
11965;DHT22;6042;41.326;19.826;2023-03-31T14:14:02;27.20;59.60
11965;DHT22;6042;41.326;19.826;2023-03-31T14:16:36;27.40;58.30
11965;DHT22;6042;41.326;19.826;2023-03-31T14:22:09;25.30;61.10
11965;DHT22;6042;41.326;19.826;2023-03-31T14:24:49;25.10;61.20
11965;DHT22;6042;41.326;19.826;2023-03-31T14:27:31;25.20;61.40
11965;DHT22;6042;41.326;19.826;2023-03-31T14:30:08;25.40;60.90
11965;DHT22;6042;41.326;19.826;2023-03-31T14:32:46;25.40;60.80
11965;DHT22;6042;41.326;19.826;2023-03-31T14:35:27;25.20;61.30
11965;DHT22;6042;41.326;19.826;2023-03-31T14:38:10;24.80;61.60
11965;DHT22;6042;41.326;19.826;2023-03-31T14:40:45;24.80;62.20
11965;DHT22;6042;41.326;19.826;2023-03-31T14:43:19;24.40;63.40
11965;DHT22;6042;41.326;19.826;2023-03-31T14:45:56;23.60;65.80
11965;DHT22;6042;41.326;19.826;2023-03-31T14:48:26;22.70;68.30
11965;DHT22;6042;41.326;19.826;2023-03-31T14:50:57;22.20;70.70
11965;DHT22;6042;41.326;19.826;2023-03-31T14:53:26;21.60;72.70
11965;DHT22;6042;41.326;19.826;2023-03-31T14:56:00;21.40;73.50
11965;DHT22;6042;41.326;19.826;2023-03-31T14:58:32;20.90;75.50
11965;DHT22;6042;41.326;19.826;2023-03-31T15:01:03;21.00;75.10
11965;DHT22;6042;41.326;19.826;2023-03-31T15:03:33;21.10;75.20
11965;DHT22;6042;41.326;19.826;2023-03-31T15:06:04;21.00;75.40
11965;DHT22;6042;41.326;19.826;2023-03-31T15:08:34;20.80;76.00
11965;DHT22;6042;41.326;19.826;2023-03-31T15:11:07;20.60;76.30
11965;DHT22;6042;41.326;19.826;2023-03-31T15:13:41;20.40;77.00
11965;DHT22;6042;41.326;19.826;2023-03-31T15:16:31;20.30;77.90
11965;DHT22;6042;41.326;19.826;2023-03-31T15:19:10;19.80;79.10
11965;DHT22;6042;41.326;19.826;2023-03-31T15:21:39;19.70;79.70
11965;DHT22;6042;41.326;19.826;2023-03-31T15:24:11;19.50;80.20
11965;DHT22;6042;41.326;19.826;2023-03-31T15:26:44;19.30;80.50
11965;DHT22;6042;41.326;19.826;2023-03-31T15:29:18;19.30;79.70
11965;DHT22;6042;41.326;19.826;2023-03-31T15:31:48;19.20;80.20
11965;DHT22;6042;41.326;19.826;2023-03-31T15:34:21;19.20;80.50
11965;DHT22;6042;41.326;19.826;2023-03-31T15:36:53;19.10;80.90
11965;DHT22;6042;41.326;19.826;2023-03-31T15:39:23;19.20;80.60
11965;DHT22;6042;41.326;19.826;2023-03-31T15:41:55;19.30;80.60
11965;DHT22;6042;41.326;19.826;2023-03-31T15:44:35;19.40;79.10
11965;DHT22;6042;41.326;19.826;2023-03-31T15:47:22;19.30;79.80
11965;DHT22;6042;41.326;19.826;2023-03-31T15:49:53;19.00;80.70
11965;DHT22;6042;41.326;19.826;2023-03-31T15:52:34;18.90;81.70
11965;DHT22;6042;41.326;19.826;2023-03-31T15:55:25;18.80;81.30
11965;DHT22;6042;41.326;19.826;2023-03-31T15:57:57;18.80;82.30
11965;DHT22;6042;41.326;19.826;2023-03-31T16:00:40;18.80;82.20
11965;DHT22;6042;41.326;19.826;2023-03-31T16:03:14;18.80;82.20
11965;DHT22;6042;41.326;19.826;2023-03-31T16:05:50;18.90;82.50
11965;DHT22;6042;41.326;19.826;2023-03-31T16:08:24;18.80;82.80
11965;DHT22;6042;41.326;19.826;2023-03-31T16:10:58;18.70;83.80
11965;DHT22;6042;41.326;19.826;2023-03-31T16:13:30;18.60;84.60
11965;DHT22;6042;41.326;19.826;2023-03-31T16:16:06;18.50;84.80
11965;DHT22;6042;41.326;19.826;2023-03-31T16:18:38;18.40;84.60
11965;DHT22;6042;41.326;19.826;2023-03-31T16:21:08;18.30;84.80
11965;DHT22;6042;41.326;19.826;2023-03-31T16:23:39;18.20;84.90
11965;DHT22;6042;41.326;19.826;2023-03-31T16:26:11;18.30;85.30
11965;DHT22;6042;41.326;19.826;2023-03-31T16:28:48;18.10;85.70
11965;DHT22;6042;41.326;19.826;2023-03-31T16:31:30;18.10;86.00
11965;DHT22;6042;41.326;19.826;2023-03-31T16:34:01;18.00;86.30
11965;DHT22;6042;41.326;19.826;2023-03-31T16:36:30;17.90;87.00
11965;DHT22;6042;41.326;19.826;2023-03-31T16:38:59;17.80;87.20
11965;DHT22;6042;41.326;19.826;2023-03-31T16:41:31;17.80;87.50
11965;DHT22;6042;41.326;19.826;2023-03-31T16:44:02;17.80;87.80
11965;DHT22;6042;41.326;19.826;2023-03-31T16:46:32;17.80;87.80
11965;DHT22;6042;41.326;19.826;2023-03-31T16:49:01;17.70;88.50